METAR AND TAF INFORMATION
METAR FOR RJCC
ADDS - METARS form results

(1157 UTC 15 December 2019)
Data provider http://aviationweather.gov/metar/data/
 
METAR text: RJCC 151130Z VRB02KT 9999 FEW015 BKN035 M05/M07 Q1028 RMK 1ST015 5CU035 A3036
Conditions at: RJCC (CHITOSE (JASDF/C, JP) observed 1130 UTC 15 December 2019
Temperature: -5.0°C (23°F)
Dewpoint: -7.0°C (19°F) [RH = 86%]
Pressure (altimeter): 30.35 inches Hg (1028.0 mb)
Winds: variable direction winds at 2 MPH (2 knots; 1.0 m/s)
Visibility: 6 or more miles (10+ km)
Ceiling: 3500 feet AGL
Clouds: few clouds at 1500 feet AGL
broken clouds at 3500 feet AGL
Weather: no significant weather observed at this time

METAR text: RJCC 151100Z 19003KT 140V250 9999 FEW015 BKN035 M04/M07 Q1028 RMK 1ST015 7CU035 A3036
Conditions at: RJCC (CHITOSE (JASDF/C, JP) observed 1100 UTC 15 December 2019
Temperature: -4.0°C (25°F)
Dewpoint: -7.0°C (19°F) [RH = 80%]
Pressure (altimeter): 30.35 inches Hg (1028.0 mb)
Winds: from the S (190 degrees) at 3 MPH (3 knots; 1.5 m/s)
Visibility: 6 or more miles (10+ km)
Ceiling: 3500 feet AGL
Clouds: few clouds at 1500 feet AGL
broken clouds at 3500 feet AGL
Weather: no significant weather observed at this time

Forecast for: RJCC (CHITOSE (JASDF/C, JP)
Text: TAF RJCC 151105Z 1512/1618 16005KT 9999 FEW015 BKN030
Forecast period: 1200 UTC 15 December 2019 to 1800 UTC 16 December 2019
Forecast type: FROM: standard forecast or significant change
Winds: from the SSE (160 degrees) at 6 MPH (5 knots; 2.6 m/s)
Visibility: 6 or more miles 10+ km)
Ceiling: 3000 feet AGL
Clouds: few clouds at 1500 feet AGL
broken clouds at 3000 feet AGL
Weather: no significant weather forecast for this period

 AIRPORT MAP

 RUNWAY INFORMATION
Runway 01L Runway length 9840 ft Runway width 200 ft
Runway elevation 62 ft Runway displaced threshold 0 ft Runway heading 353
Runway 19R Runway length 9840 ft Runway width 200 ft
Runway elevation 82 ft Runway displaced threshold 0 ft Runway heading 173
Runway 01R Runway length 9840 ft Runway width 200 ft
Runway elevation 57 ft Runway displaced threshold 0 ft Runway heading 353
Runway 19L Runway length 9840 ft Runway width 200 ft
Runway elevation 77 ft Runway displaced threshold 0 ft Runway heading 173

 AIRPORT FREQUENCIES
Type APP Name CHITOSE AP Frequency 120.1 MHZ
Type ATIS Name ATIS Frequency 128.6 MHZ
Type CLD Name CHITOSE CL Frequency 121.9 MHZ
Type DEP Name CHITOSE DE Frequency 124.7 MHZ
Type GND Name CHITOSE GN Frequency 121.6 MHZ
Type TCA Name TCA Frequency 127.7 MHZ
Type TWR Name CHITOSE TW Frequency 118.8 MHZ

 AIRPORT NEAR NAVIGATION AIDS
Type VOR-DME Name Mukawa Frequency 116400 KHZ
Type NDB Name Naganuma Frequency 377 KHZ